Keumyang Family — DSNO8 — position and weather

sailwx.info

Track history (hours):
 
Tides and Currents Weather Stations Pressure Air Temp Water Temp Dewpoint Dewpoint Depression Visibility Wind Speed Wind Dir Waves Ship Positions

Keumyang Family

Last reported at 2015-Jan-30 19:09 UTC. Time now 2015-Jan-31 19:15 UTC.
Position N 35°35' E 139°59'.

Length 95 m; draft 4 m.

Type: Cargo ship. MMSI: 441416000.

Date/timePositionNaut miles runAvg speedWind from/ knotsBaromVisibWave heightAir tempDewpointWater temp
2015-Jan-30 19:09N 35°35' E 139°59'8 0.3
2015-Jan-29 20:24N 35°29' E 139°53'4 4.4
2015-Jan-29 19:33N 35°27' E 139°49'5 4.7
2015-Jan-29 18:33N 35°23' E 139°46'5 4.6
2015-Jan-29 17:33N 35°19' E 139°44'5 4.9
2015-Jan-29 16:33N 35°14' E 139°47'5 5.0
2015-Jan-29 15:33N 35°10' E 139°45'5 4.9
2015-Jan-29 14:33N 35°05' E 139°44'5 5.1
2015-Jan-29 13:33N 35°01' E 139°39'5 5.2
2015-Jan-29 12:33N 34°58' E 139°35'6 5.5
2015-Jan-29 11:27N 34°55' E 139°28'226 6.5
2015-Jan-28 00:29N 34°10' E 134°59'3 2.7
2015-Jan-27 23:33N 34°12' E 134°57'5 1.3
2015-Jan-27 19:31N 34°07' E 134°54'  
Track history (hours):
 
Tides and Currents Weather Stations Pressure Air Temp Water Temp Dewpoint Dewpoint Depression Visibility Wind Speed Wind Dir Waves Ship Positions

Keumyang Family

Last reported at 2015-Jan-30 19:09 UTC. Time now 2015-Jan-31 19:15 UTC.
Position N 35°35' E 139°59'.

Length 95 m; draft 4 m.

Type: Cargo ship. MMSI: 441416000.

Date/timePositionNaut miles runAvg speedWind from/ knotsBaromVisibWave heightAir tempDewpointWater temp
2015-Jan-30 19:09N 35°35' E 139°59'8 0.3
2015-Jan-29 20:24N 35°29' E 139°53'4 4.4
2015-Jan-29 19:33N 35°27' E 139°49'5 4.7
2015-Jan-29 18:33N 35°23' E 139°46'5 4.6
2015-Jan-29 17:33N 35°19' E 139°44'5 4.9
2015-Jan-29 16:33N 35°14' E 139°47'5 5.0
2015-Jan-29 15:33N 35°10' E 139°45'5 4.9
2015-Jan-29 14:33N 35°05' E 139°44'5 5.1
2015-Jan-29 13:33N 35°01' E 139°39'5 5.2
2015-Jan-29 12:33N 34°58' E 139°35'6 5.5
2015-Jan-29 11:27N 34°55' E 139°28'226 6.5
2015-Jan-28 00:29N 34°10' E 134°59'3 2.7
2015-Jan-27 23:33N 34°12' E 134°57'5 1.3
2015-Jan-27 19:31N 34°07' E 134°54'  

Dump ship's entire track history